Archival Weather

Heathrow

London, United Kingdom (EGLL)

Report from: Monday, July 18, 2022 3:20 PM BST
Current time: Tuesday, July 16, 2024 4:00 PM BST

Current weather – Weather history – Daily summaries
Weather forecast

Temperature36.0°C (96.8°F)
Heat index33.9°C (93.1°F)
Dew point8.0°C (46.4°F)
Winds 9 kts (4.6 m/s, 10.4 mph) Vrb
Winds variableWinds variable from South-Southeast (150°) to West-Southwest (250°)
Visibility6.2 mi. (10 km)
Clouds Sky clear
Altimeter30.06 in.Hg (1018 mB)
Relative humidity18 %
Density altitude2,377 ft. (725 m)
Remarks Fully automated report
No clouds detected
No significant changes expected in the next two hours
Flight conditions Visual Meteorological Conditions
Raw dataEGLL 181420Z AUTO 19009KT 150V250 9999 NCD 36/08 Q1018 NOSIG
An error has occurred. This application may no longer respond until reloaded. Reload 🗙